Latest Weather Observations for Portland Airport

IDV60801

Issued at 11:32 pm EST Tuesday 27 September 2016 (issued every 30 minutes, with the page automatically refreshed every 10 minutes)

About weather observations | Map of weather stations | Latest weather observations for VIC | Other Formats
Station Details ID: 090171 Name: CASHMORE AIRPORT Lat: -38.31 Lon: 141.47 Height: 80.9 m
Data from the previous 72 hours. | See also: Recent months at Portland Airport
Date/Time
EST
Temp
°C
App
Temp
°C
Dew
Point
°C
Rel
Hum
%
Delta-T
°C
Wind Press
QNH
hPa
Press
MSL
hPa
Rain since
9am
mm
Dir  Spd
km/h
Gust
km/h
Spd
kts
Gust
kts
27/11:30pm 10.0 6.8 8.3 89 0.8 NW 15 20 8 11 1011.6 1011.7 0.2
27/11:00pm 10.1 7.2 8.2 88 0.9 WNW 13 15 7 8 1011.7 1011.8 0.0
27/10:52pm 10.2 6.9 8.1 87 1.0 NW 15 20 8 11 1011.7 1011.8 0.0
27/10:30pm 10.6 6.3 7.8 83 1.4 WNW 20 28 11 15 1011.7 1011.8 0.0
27/10:00pm 11.0 8.0 7.9 81 1.5 NNW 13 19 7 10 1011.5 1011.6 0.0
27/09:30pm 10.5 7.5 7.7 83 1.4 NNW 13 17 7 9 1011.6 1011.7 0.0
27/09:00pm 9.9 6.7 7.0 82 1.4 N 13 17 7 9 1011.6 1011.7 0.0
27/08:30pm 10.3 7.5 6.8 79 1.7 N 11 13 6 7 1011.7 1011.8 0.0
27/08:00pm 11.3 7.8 7.4 77 1.9 NW 15 20 8 11 1011.6 1011.7 0.0
27/07:30pm 11.4 7.5 7.3 76 2.0 NW 17 22 9 12 1011.7 1011.8 0.0
27/07:00pm 11.8 7.4 7.3 74 2.2 NW 20 28 11 15 1011.7 1011.8 0.0
27/06:30pm 12.3 7.9 7.4 72 2.4 WNW 20 28 11 15 1011.6 1011.7 0.0
27/06:00pm 12.8 8.1 7.9 72 2.4 WNW 22 30 12 16 1011.6 1011.7 0.0
27/05:30pm 13.4 9.3 8.7 73 2.4 WNW 20 33 11 18 1011.5 1011.6 0.0
27/05:00pm 13.4 8.8 8.3 71 2.6 WNW 22 33 12 18 1011.5 1011.6 0.0
27/04:30pm 13.3 7.5 8.0 70 2.6 WNW 28 39 15 21 1011.3 1011.4 0.0
27/04:00pm 14.0 7.3 7.3 64 3.3 WNW 32 46 17 25 1011.4 1011.5 0.0
27/03:30pm 13.7 7.0 7.5 66 3.1 WNW 32 43 17 23 1011.4 1011.5 0.0
27/03:00pm 14.2 7.2 7.0 62 3.5 WNW 33 41 18 22 1011.3 1011.4 0.0
27/02:30pm 14.0 7.3 7.5 65 3.2 WNW 32 43 17 23 1011.3 1011.4 0.0
27/02:00pm 13.9 7.7 7.7 66 3.1 W 30 39 16 21 1011.5 1011.6 0.0
27/01:30pm 13.8 7.4 6.9 63 3.4 W 30 37 16 20 1011.8 1011.9 0.0
27/01:00pm 13.7 6.8 6.3 61 3.6 WNW 32 43 17 23 1011.9 1012.0 0.0
27/12:30pm 13.6 7.0 6.2 61 3.5 WNW 30 41 16 22 1011.9 1012.0 0.0
27/12:00pm 13.1 6.1 6.9 66 3.0 WNW 33 46 18 25 1012.2 1012.3 0.0
27/11:30am 13.1 6.0 6.2 63 3.3 WNW 33 46 18 25 1012.5 1012.5 0.0
27/11:00am 12.8 6.4 5.0 59 3.6 WNW 28 44 15 24 1012.5 1012.5 0.0
27/10:30am 12.6 6.8 6.2 65 3.0 WNW 26 35 14 19 1012.6 1012.6 0.0
27/10:00am 12.2 5.8 5.1 62 3.3 W 28 37 15 20 1012.5 1012.5 0.0
27/09:30am 11.8 4.9 4.8 62 3.2 W 30 37 16 20 1012.5 1012.5 0.0
27/09:00am 10.8 4.6 4.3 64 2.9 W 26 35 14 19 1012.2 1012.3 7.2
27/08:30am 10.4 4.8 5.4 71 2.3 W 24 32 13 17 1011.9 1012.0 7.2
27/08:00am 10.3 5.5 5.7 73 2.1 W 20 30 11 16 1011.6 1011.7 7.2
27/07:30am 9.9 5.2 5.3 73 2.1 W 19 30 10 16 1011.3 1011.4 7.2
27/07:00am 9.5 4.1 4.5 71 2.2 W 22 32 12 17 1011.0 1011.1 7.2
27/06:30am 9.4 3.3 4.6 72 2.1 W 26 37 14 20 1010.7 1010.8 7.2
27/06:00am 9.7 2.5 4.9 72 2.2 W 32 39 17 21 1010.2 1010.3 7.2
27/05:30am 9.7 2.9 5.3 74 2.0 WSW 30 41 16 22 1009.6 1009.7 7.2
27/05:00am 9.9 3.1 6.8 81 1.5 WSW 32 43 17 23 1009.4 1009.5 7.2
27/04:49am 9.7 2.8 7.3 85 1.1 WSW 33 44 18 24 1009.3 1009.4 7.2
27/04:46am 9.7 2.5 7.5 86 1.1 WSW 35 46 19 25 1009.3 1009.4 7.2
27/04:30am 9.5 2.9 7.9 90 0.8 W 32 44 17 24 1009.2 1009.3 7.2
27/04:25am 9.5 2.9 7.9 90 0.8 W 32 46 17 25 1009.2 1009.3 7.0
27/04:19am 9.4 2.6 7.8 90 0.8 W 33 46 18 25 1009.1 1009.2 7.0
27/04:00am 9.8 2.7 8.2 90 0.8 WSW 35 48 19 26 1008.8 1008.9 7.0
27/03:48am 10.0 3.6 8.6 91 0.7 WSW 32 44 17 24 1008.8 1008.9 7.0
27/03:44am 10.0 4.0 8.6 91 0.7 WSW 30 44 16 24 1008.7 1008.8 7.0
27/03:31am 9.4 3.7 8.2 92 0.6 WSW 28 48 15 26 1008.6 1008.7 7.0
27/03:30am 9.5 3.8 8.3 92 0.6 WSW 28 44 15 24 1008.7 1008.8 7.0
27/03:29am 9.5 4.2 8.3 92 0.6 WSW 26 44 14 24 1008.7 1008.8 7.0
27/03:24am 9.8 4.5 8.6 92 0.6 WSW 26 37 14 20 1008.7 1008.8 6.8
27/03:08am 9.8 4.2 8.6 92 0.6 WSW 28 37 15 20 1008.5 1008.6 6.8
27/03:00am 9.8 5.3 8.7 93 0.5 WSW 22 37 12 20 1008.4 1008.5 6.4
27/02:47am 8.7 6.1 7.6 93 0.5 WNW 11 15 6 8 1008.5 1008.6 6.2
27/02:30am 7.4 4.5 6.3 93 0.5 N 11 13 6 7 1008.6 1008.7 6.2
27/02:00am 7.3 3.2 6.1 92 0.5 NNW 17 20 9 11 1008.7 1008.8 6.2
27/01:30am 6.6 2.7 5.2 91 0.6 NNW 15 19 8 10 1008.9 1009.0 6.2
27/01:00am 6.6 2.6 5.1 90 0.7 NNW 15 19 8 10 1008.9 1009.0 6.2
27/12:30am 6.7 2.7 5.0 89 0.7 NNW 15 20 8 11 1009.1 1009.2 6.0
27/12:00am 5.9 1.8 4.4 90 0.6 NNW 15 20 8 11 1009.2 1009.3 6.0
 
Date/Time
EST
Temp
°C
App
Temp
°C
Dew
Point
°C
Rel
Hum
%
Delta-T
°C
Wind Press
QNH
hPa
Press
MSL
hPa
Rain since
9am
mm
Dir  Spd
km/h
Gust
km/h
Spd
kts
Gust
kts
26/11:30pm 6.0 1.9 4.5 90 0.6 NNW 15 20 8 11 1009.4 1009.5 6.0
26/11:00pm 6.1 2.0 4.4 89 0.7 N 15 19 8 10 1009.4 1009.5 6.0
26/10:30pm 6.1 2.0 4.3 88 0.8 NNW 15 19 8 10 1009.5 1009.6 6.0
26/10:00pm 7.0 2.6 4.5 84 1.1 NW 17 20 9 11 1009.5 1009.6 6.0
26/09:30pm 7.1 3.1 4.8 85 1.0 NW 15 20 8 11 1009.4 1009.5 6.0
26/09:00pm 7.4 2.5 4.9 84 1.1 NW 20 26 11 14 1009.3 1009.4 6.0
26/08:30pm 7.5 3.0 4.3 80 1.4 NW 17 22 9 12 1009.2 1009.3 5.8
26/08:00pm 8.3 4.0 5.1 80 1.4 NW 17 24 9 13 1008.9 1009.0 5.8
26/07:30pm 8.7 4.4 5.4 80 1.5 WNW 17 24 9 13 1008.6 1008.7 5.8
26/07:00pm 8.2 3.8 5.0 80 1.4 WNW 17 20 9 11 1008.4 1008.5 5.8
26/06:38pm 8.4 3.7 5.0 79 1.5 WNW 19 26 10 14 1008.3 1008.4 5.8
26/06:30pm 8.4 2.7 5.0 79 1.5 WNW 24 33 13 18 1008.2 1008.3 5.8
26/06:22pm 8.5 1.1 5.1 79 1.5 WNW 33 52 18 28 1008.0 1008.1 5.6
26/06:14pm 8.7 2.2 4.9 77 1.7 NW 28 48 15 26 1008.0 1008.1 4.0
26/06:00pm 10.0 5.7 5.2 72 2.2 NW 17 24 9 13 1007.8 1007.9 2.6
26/05:30pm 10.5 4.8 5.1 69 2.5 WNW 24 37 13 20 1007.6 1007.7 2.6
26/05:00pm 10.7 6.4 6.8 77 1.9 NW 19 24 10 13 1007.3 1007.4 2.6
26/04:30pm 10.8 6.6 7.3 79 1.7 NNW 19 24 10 13 1007.4 1007.5 2.6
26/04:00pm 9.9 6.0 7.3 84 1.2 NNW 17 24 9 13 1007.7 1007.8 2.6
26/03:30pm 8.5 4.8 6.1 85 1.1 NNW 15 20 8 11 1007.9 1008.0 2.6
26/03:03pm 8.8 2.4 6.8 87 0.9 NW 30 48 16 26 1008.5 1008.6 1.6
26/03:00pm 8.8 2.0 6.8 87 0.9 NW 32 48 17 26 1008.4 1008.5 1.6
26/02:39pm 9.9 4.1 8.0 88 0.9 WNW 28 48 15 26 1008.0 1008.1 1.2
26/02:30pm 9.7 4.3 7.8 88 0.9 WNW 26 43 14 23 1008.1 1008.2 1.0
26/02:00pm 12.1 5.1 5.9 66 2.9 NW 32 54 17 29 1007.5 1007.6 0.0
26/01:58pm 12.9 6.5 5.3 60 3.5 NW 28 50 15 27 1007.4 1007.5 0.0
26/01:30pm 14.3 8.4 3.7 49 4.8 NNW 24 37 13 20 1007.7 1007.8 0.0
26/01:00pm 14.4 8.9 6.0 57 4.0 NNW 24 33 13 18 1008.0 1008.1 0.0
26/12:30pm 15.1 9.5 5.6 53 4.5 NNW 24 39 13 21 1008.1 1008.2 0.0
26/12:00pm 14.8 9.8 6.4 57 4.1 NNW 22 32 12 17 1008.6 1008.7 0.0
26/11:30am 14.0 9.0 6.6 61 3.6 NNW 22 32 12 17 1009.2 1009.3 0.0
26/11:00am 14.0 8.4 7.1 63 3.4 NNW 26 41 14 22 1009.7 1009.8 0.0
26/10:30am 13.8 8.7 7.8 67 3.0 NNW 24 39 13 21 1010.0 1010.1 0.0
26/10:00am 12.5 7.3 7.4 71 2.5 NNW 24 37 13 20 1010.3 1010.4 0.0
26/09:30am 12.8 7.8 8.1 73 2.3 NW 24 35 13 19 1010.6 1010.7 0.0
26/09:00am 11.5 7.3 8.4 81 1.5 NNW 20 28 11 15 1010.7 1010.8 0.0
26/08:30am 9.2 5.3 7.2 87 0.9 N 17 22 9 12 1010.6 1010.7 0.0
26/08:00am 8.4 5.2 6.7 89 0.8 N 13 17 7 9 1010.7 1010.8 0.0
26/07:30am 8.2 4.6 6.8 91 0.7 N 15 22 8 12 1011.0 1011.1 0.0
26/07:00am 6.6 2.7 5.2 91 0.6 N 15 19 8 10 1011.0 1011.1 0.0
26/06:30am 6.1 2.5 4.9 92 0.5 N 13 17 7 9 1010.9 1011.0 0.0
26/06:00am 5.8 2.5 4.4 91 0.6 N 11 13 6 7 1011.1 1011.2 0.0
26/05:30am 5.9 2.2 4.5 91 0.6 NNW 13 17 7 9 1011.1 1011.2 0.0
26/05:00am 5.8 2.1 4.4 91 0.6 NNW 13 19 7 10 1011.2 1011.3 0.0
26/04:30am 5.5 2.1 4.0 90 0.6 NNW 11 13 6 7 1011.2 1011.3 0.0
26/04:00am 5.7 2.3 4.0 89 0.7 NNW 11 15 6 8 1011.3 1011.4 0.0
26/03:30am 6.1 2.8 4.3 88 0.8 NNW 11 15 6 8 1011.4 1011.5 0.0
26/03:00am 6.8 3.2 5.0 88 0.8 NNW 13 17 7 9 1011.7 1011.8 0.0
26/02:30am 6.8 3.2 4.8 87 0.9 NNW 13 17 7 9 1012.0 1012.1 0.0
26/02:00am 7.7 3.8 5.5 86 1.0 NNW 15 19 8 10 1012.5 1012.5 0.0
26/01:30am 7.3 4.5 5.1 86 1.0 NNW 9 13 5 7 1012.7 1012.7 0.0
26/01:00am 7.4 5.9 5.0 85 1.1 NW 2 7 1 4 1013.0 1013.0 0.0
26/12:30am 7.9 5.2 5.4 84 1.1 NNW 9 13 5 7 1013.2 1013.2 0.0
26/12:00am 8.0 4.8 5.1 82 1.3 NNW 11 13 6 7 1013.2 1013.2 0.0
 
Date/Time
EST
Temp
°C
App
Temp
°C
Dew
Point
°C
Rel
Hum
%
Delta-T
°C
Wind Press
QNH
hPa
Press
MSL
hPa
Rain since
9am
mm
Dir  Spd
km/h
Gust
km/h
Spd
kts
Gust
kts
25/11:30pm 8.1 5.0 5.4 83 1.2 NNW 11 15 6 8 1013.4 1013.4 0.0
25/11:00pm 7.9 4.4 5.5 85 1.1 NNW 13 15 7 8 1013.5 1013.5 0.0
25/10:30pm 7.4 4.9 5.0 85 1.1 NNW 7 11 4 6 1013.8 1013.8 0.0
25/10:00pm 7.7 4.2 5.3 85 1.1 NNW 13 13 7 7 1013.7 1013.7 0.0
25/09:30pm 7.8 5.0 5.1 83 1.2 N 9 13 5 7 1013.7 1013.7 0.0
25/09:00pm 8.2 5.4 5.1 81 1.4 N 9 11 5 6 1013.8 1013.8 0.0
25/08:30pm 8.3 5.4 4.9 79 1.5 N 9 11 5 6 1013.8 1013.8 0.0
25/08:00pm 9.1 6.0 5.5 78 1.6 WNW 11 15 6 8 1013.7 1013.7 0.0
25/07:30pm 8.8 5.5 4.6 75 1.9 WNW 11 13 6 7 1013.4 1013.4 0.0
25/07:00pm 9.0 5.7 4.4 73 2.0 W 11 15 6 8 1013.1 1013.1 0.0
25/06:30pm 9.6 6.3 4.6 71 2.2 WNW 11 13 6 7 1012.8 1012.8 0.0
25/06:00pm 10.8 7.1 4.7 66 2.8 WNW 13 17 7 9 1012.6 1012.6 0.0
25/05:30pm 11.2 6.3 4.2 62 3.1 W 19 24 10 13 1012.2 1012.3 0.0
25/05:00pm 11.6 6.6 4.6 62 3.2 W 20 28 11 15 1012.1 1012.2 0.0
25/04:30pm 11.6 6.7 3.9 59 3.4 WNW 19 26 10 14 1012.1 1012.2 0.0
25/04:00pm 12.0 7.4 5.4 64 3.1 W 19 28 10 15 1012.0 1012.1 0.0
25/03:30pm 11.9 7.1 4.9 62 3.2 WSW 19 26 10 14 1011.8 1011.9 0.0
25/03:00pm 12.2 7.3 5.1 62 3.3 W 20 30 11 16 1012.1 1012.2 0.0
25/02:30pm 12.5 7.7 5.7 63 3.2 W 20 32 11 17 1012.1 1012.2 0.0
25/02:00pm 12.1 7.3 4.6 60 3.4 W 19 30 10 16 1012.4 1012.4 0.0
25/01:30pm 12.5 7.6 5.0 60 3.5 WSW 20 28 11 15 1012.4 1012.4 0.0
25/01:00pm 12.3 7.0 5.0 61 3.4 WSW 22 32 12 17 1012.5 1012.5 0.0
25/12:30pm 12.5 5.9 4.2 57 3.8 W 28 35 15 19 1012.8 1012.8 0.0
25/12:00pm 12.3 6.2 4.8 60 3.4 WSW 26 37 14 20 1012.7 1012.7 0.0
25/11:30am 12.3 6.0 5.9 65 3.0 W 28 37 15 20 1012.9 1012.9 0.0
25/11:00am 12.2 6.5 5.1 62 3.3 WSW 24 39 13 21 1013.0 1013.0 0.0
25/10:30am 11.8 5.6 4.5 61 3.3 WSW 26 35 14 19 1012.8 1012.8 0.0
25/10:00am 11.6 6.1 6.1 69 2.6 W 24 33 13 18 1012.7 1012.7 0.0
25/09:30am 10.2 5.9 5.4 72 2.2 WSW 17 24 9 13 1012.6 1012.6 0.0
25/09:00am 11.1 5.2 5.6 69 2.5 W 26 33 14 18 1012.2 1012.3 12.0
25/08:30am 9.8 6.0 5.8 76 1.8 WSW 15 22 8 12 1011.9 1012.0 12.0
25/08:00am 10.6 6.1 6.0 73 2.1 WSW 19 26 10 14 1011.4 1011.5 12.0
25/07:30am 7.8 4.2 4.9 82 1.3 WSW 13 17 7 9 1011.1 1011.2 12.0
25/07:06am 8.8 4.2 5.7 81 1.4 W 19 35 10 19 1010.8 1010.9 11.8
25/07:00am 7.9 4.7 5.0 82 1.3 W 11 17 6 9 1010.7 1010.8 11.8
25/06:52am 7.2 3.4 4.0 80 1.4 WSW 13 20 7 11 1010.5 1010.6 11.8
25/06:34am 7.5 3.1 4.5 81 1.3 WSW 17 35 9 19 1010.5 1010.6 11.6
25/06:30am 7.7 4.0 4.7 81 1.3 WSW 13 19 7 10 1010.3 1010.4 10.6
25/06:00am 9.1 4.5 3.5 68 2.4 WSW 17 22 9 12 1009.8 1009.9 10.2
25/05:30am 8.7 3.5 3.3 69 2.3 W 20 28 11 15 1009.7 1009.8 10.2
25/05:00am 8.5 3.2 2.9 68 2.4 WSW 20 30 11 16 1009.3 1009.4 10.2
25/04:30am 8.8 3.1 3.0 67 2.5 WSW 22 32 12 17 1009.0 1009.1 10.2
25/04:00am 8.5 3.2 2.9 68 2.4 W 20 30 11 16 1008.7 1008.8 10.2
25/03:30am 9.2 2.8 3.0 65 2.7 WSW 26 33 14 18 1008.4 1008.5 10.2
25/03:00am 8.4 3.6 4.4 76 1.8 W 19 24 10 13 1008.4 1008.5 10.2
25/02:30am 9.1 3.7 4.3 72 2.1 WSW 22 32 12 17 1008.5 1008.6 10.2
25/02:00am 8.7 3.2 4.1 73 2.0 WNW 22 33 12 18 1008.4 1008.5 10.2
25/01:30am 9.2 4.1 4.2 71 2.2 WSW 20 32 11 17 1008.3 1008.4 10.2
25/01:00am 9.1 3.2 3.9 70 2.3 W 24 35 13 19 1008.3 1008.4 10.2
25/12:30am 9.0 3.3 4.8 75 1.9 W 24 46 13 25 1008.2 1008.3 10.2
25/12:21am 9.5 3.0 4.9 73 2.1 W 28 46 15 25 1008.1 1008.2 10.2
25/12:00am 9.5 3.4 4.9 73 2.1 W 26 33 14 18 1007.9 1008.0 10.2

Other Formats:

Comma delimited format used in spreadsheet applications
http://www.bom.gov.au/fwo/IDV60801/IDV60801.94828.axf

JavaScript Object Notation format (JSON) in row-major order
http://www.bom.gov.au/fwo/IDV60801/IDV60801.94828.json